createdAt,value
2023-01-02T00:01:21.935Z,7.39
2023-01-02T00:03:49.168Z,7.40
2023-01-02T00:06:18.124Z,7.38
2023-01-02T00:08:45.507Z,7.36
2023-01-02T00:11:12.783Z,7.35
2023-01-02T00:13:40.071Z,7.34
2023-01-02T00:16:08.965Z,7.34
2023-01-02T00:18:36.210Z,7.35
2023-01-02T00:21:06.020Z,7.38
2023-01-02T00:23:33.875Z,7.42
2023-01-02T00:26:01.136Z,7.41
2023-01-02T00:28:29.244Z,7.36
2023-01-02T00:30:57.379Z,7.38
2023-01-02T00:33:24.686Z,7.37
2023-01-02T00:35:51.956Z,7.41
2023-01-02T00:38:19.387Z,7.45
2023-01-02T00:40:46.557Z,7.46
2023-01-02T00:43:13.807Z,7.46
2023-01-02T00:45:40.975Z,7.42
2023-01-02T00:48:08.123Z,7.39
2023-01-02T00:50:36.682Z,7.39
2023-01-02T00:53:03.810Z,7.38
2023-01-02T00:55:32.224Z,7.37
2023-01-02T00:57:59.403Z,7.36
2023-01-02T01:00:26.652Z,7.35
2023-01-02T01:03:00.844Z,7.34
2023-01-02T01:05:29.456Z,7.31
2023-01-02T01:07:58.102Z,7.30
2023-01-02T01:10:26.672Z,7.33
2023-01-02T01:12:53.937Z,7.29
2023-01-02T01:15:21.272Z,7.29
2023-01-02T01:17:48.848Z,7.31
2023-01-02T01:20:16.170Z,7.35
2023-01-02T01:22:43.446Z,7.37
2023-01-02T01:25:10.678Z,7.34
2023-01-02T01:27:38.361Z,7.35
2023-01-02T01:30:07.313Z,7.36
2023-01-02T01:32:35.039Z,7.35
2023-01-02T01:35:02.498Z,7.37
2023-01-02T01:37:29.720Z,7.31
2023-01-02T01:39:57.210Z,7.31
2023-01-02T01:42:24.504Z,7.33
2023-01-02T01:44:54.898Z,7.37
2023-01-02T01:47:42.404Z,7.38
2023-01-02T01:50:18.969Z,7.39
2023-01-02T01:53:08.586Z,7.39
2023-01-02T01:55:43.783Z,7.40
2023-01-02T01:58:29.213Z,7.39
2023-01-02T02:00:56.869Z,7.37
2023-01-02T02:03:29.304Z,7.36
2023-01-02T02:05:59.669Z,7.35
2023-01-02T02:08:49.071Z,7.31
2023-01-02T02:11:17.479Z,7.28
2023-01-02T02:13:45.112Z,7.29
2023-01-02T02:16:18.488Z,7.29
2023-01-02T02:19:35.057Z,7.30
2023-01-02T02:22:49.271Z,7.32
2023-01-02T02:25:50.826Z,7.30
2023-01-02T02:29:05.805Z,7.33
2023-01-02T02:31:48.961Z,7.29
2023-01-02T02:34:29.543Z,7.26
2023-01-02T02:37:18.083Z,7.29
2023-01-02T02:40:03.520Z,7.31
2023-01-02T02:43:11.465Z,7.29
2023-01-02T02:46:12.771Z,7.24
2023-01-02T02:49:36.700Z,7.29
2023-01-02T02:52:27.762Z,7.19
2023-01-02T02:55:32.388Z,7.14
2023-01-02T02:58:01.493Z,7.18
2023-01-02T03:00:28.687Z,7.28
2023-01-02T03:02:56.788Z,7.28
2023-01-02T03:06:09.439Z,7.30
2023-01-02T03:09:33.924Z,7.30
2023-01-02T03:12:43.527Z,7.29
2023-01-02T03:15:32.581Z,7.29
2023-01-02T03:18:17.909Z,7.29
2023-01-02T03:21:03.000Z,7.28
2023-01-02T03:23:37.191Z,7.29
2023-01-02T03:26:05.345Z,7.23
2023-01-02T03:28:34.947Z,7.23
2023-01-02T03:31:04.929Z,7.23
2023-01-02T03:33:39.955Z,7.24
2023-01-02T03:36:17.323Z,7.27
2023-01-02T03:38:57.427Z,7.24
2023-01-02T03:41:33.920Z,7.24
2023-01-02T03:44:03.286Z,7.24
2023-01-02T03:47:05.627Z,7.26
2023-01-02T03:49:42.243Z,7.24
2023-01-02T03:52:09.610Z,7.23
2023-01-02T03:54:38.918Z,7.20
2023-01-02T03:57:59.619Z,7.17
2023-01-02T04:00:52.873Z,7.15
2023-01-02T04:04:18.019Z,7.11
2023-01-02T04:07:13.332Z,7.16
2023-01-02T04:09:45.629Z,7.19
2023-01-02T04:12:20.424Z,7.16
2023-01-02T04:15:01.317Z,7.16
2023-01-02T04:17:58.418Z,7.20
2023-01-02T04:20:40.832Z,7.21
2023-01-02T04:23:20.833Z,7.20
2023-01-02T04:26:31.813Z,7.20
2023-01-02T04:29:03.259Z,7.20
2023-01-02T04:32:08.494Z,7.19
2023-01-02T04:34:40.782Z,7.13
2023-01-02T04:37:12.223Z,7.15
2023-01-02T04:39:39.744Z,7.17
2023-01-02T04:42:07.278Z,7.16
2023-01-02T04:44:37.501Z,7.13
2023-01-02T04:47:05.155Z,7.10
2023-01-02T04:49:32.927Z,7.10
2023-01-02T04:52:03.618Z,7.07
2023-01-02T04:54:34.531Z,7.06
2023-01-02T04:57:19.898Z,7.05
2023-01-02T04:59:47.033Z,7.08
2023-01-02T05:02:14.356Z,7.07
2023-01-02T05:04:41.558Z,7.09
2023-01-02T05:07:08.819Z,7.09
2023-01-02T05:09:35.980Z,7.06
2023-01-02T05:12:03.273Z,7.08
2023-01-02T05:14:31.187Z,7.13
2023-01-02T05:16:58.416Z,7.15
2023-01-02T05:19:25.618Z,7.19
2023-01-02T05:22:11.571Z,7.20
2023-01-02T05:24:38.715Z,7.20
2023-01-02T05:27:05.876Z,7.21
2023-01-02T05:29:33.092Z,7.19
2023-01-02T05:32:00.310Z,7.22
2023-01-02T05:34:27.595Z,7.21
2023-01-02T05:36:54.760Z,7.24
2023-01-02T05:39:22.001Z,7.21
2023-01-02T05:41:49.195Z,7.09
2023-01-02T05:44:16.483Z,7.09
2023-01-02T05:46:44.646Z,7.15
2023-01-02T05:49:12.242Z,7.20
2023-01-02T05:51:39.605Z,7.22
2023-01-02T05:54:07.666Z,7.21
2023-01-02T05:56:34.918Z,7.18
2023-01-02T05:59:02.147Z,7.20
2023-01-02T06:01:30.434Z,7.23
2023-01-02T06:04:00.729Z,7.23
2023-01-02T06:06:41.037Z,7.24
2023-01-02T06:09:13.169Z,7.24
2023-01-02T06:11:40.658Z,7.21
2023-01-02T06:14:11.712Z,7.19
2023-01-02T06:16:40.122Z,7.18
2023-01-02T06:19:07.663Z,7.20
2023-01-02T06:21:34.954Z,7.21
2023-01-02T06:24:02.296Z,7.22
2023-01-02T06:26:34.898Z,7.24
2023-01-02T06:29:03.692Z,7.23
2023-01-02T06:31:33.334Z,7.23
2023-01-02T06:34:03.268Z,7.26
2023-01-02T06:36:33.947Z,7.29
2023-01-02T06:39:01.797Z,7.29
2023-01-02T06:41:29.191Z,7.28
2023-01-02T06:43:56.476Z,7.27
2023-01-02T06:46:24.500Z,7.27
2023-01-02T06:48:52.330Z,7.27
2023-01-02T06:51:23.503Z,7.28
2023-01-02T06:53:51.199Z,7.30
2023-01-02T06:56:20.332Z,7.31
2023-01-02T06:58:47.913Z,7.30
2023-01-02T07:01:19.895Z,7.30
2023-01-02T07:03:47.100Z,7.29
2023-01-02T07:06:19.751Z,7.29
2023-01-02T07:08:47.479Z,7.28
2023-01-02T07:11:24.603Z,7.30
2023-01-02T07:13:54.720Z,7.28
2023-01-02T07:16:24.234Z,7.30
2023-01-02T07:18:54.874Z,7.32
2023-01-02T07:21:22.336Z,7.34
2023-01-02T07:23:49.859Z,7.35
2023-01-02T07:26:17.192Z,7.36
2023-01-02T07:28:45.688Z,7.38
2023-01-02T07:31:17.630Z,7.39
2023-01-02T07:33:45.454Z,7.38
2023-01-02T07:36:17.791Z,7.39
2023-01-02T07:38:45.233Z,7.38
2023-01-02T07:41:19.275Z,7.37
2023-01-02T07:43:47.656Z,7.36
2023-01-02T07:46:19.319Z,7.39
2023-01-02T07:48:47.555Z,7.40
2023-01-02T07:51:17.394Z,7.41
2023-01-02T07:53:48.346Z,7.41
2023-01-02T07:56:15.578Z,7.42
2023-01-02T07:58:42.825Z,7.43
2023-01-02T08:01:13.199Z,7.45
2023-01-02T08:03:41.074Z,7.44
2023-01-02T08:06:16.152Z,7.46
2023-01-02T08:08:44.306Z,7.50
2023-01-02T08:11:17.661Z,7.49
2023-01-02T08:13:45.072Z,7.48
2023-01-02T08:16:19.230Z,7.47
2023-01-02T08:18:47.418Z,7.44
2023-01-02T08:21:15.107Z,7.44
2023-01-02T08:23:42.336Z,7.50
2023-01-02T08:26:11.319Z,7.51
2023-01-02T08:28:40.827Z,7.52
2023-01-02T08:31:20.330Z,7.52
2023-01-02T08:33:48.909Z,7.51
2023-01-02T08:36:16.376Z,7.54
2023-01-02T08:38:43.926Z,7.54
2023-01-02T08:41:11.128Z,7.56
2023-01-02T08:43:38.644Z,7.53
2023-01-02T08:46:08.971Z,7.54
2023-01-02T08:48:36.693Z,7.57
2023-01-02T08:51:04.958Z,7.57
2023-01-02T08:53:32.513Z,7.58
2023-01-02T08:56:28.638Z,7.59
2023-01-02T08:59:01.280Z,7.59
2023-01-02T09:01:30.822Z,7.61
2023-01-02T09:03:59.749Z,7.64
2023-01-02T09:06:30.797Z,7.65
2023-01-02T09:09:01.417Z,7.65
2023-01-02T09:11:36.427Z,7.66
2023-01-02T09:14:05.419Z,7.70
2023-01-02T09:16:33.729Z,7.72
2023-01-02T09:19:02.440Z,7.74
2023-01-02T09:21:30.384Z,7.76
2023-01-02T09:23:57.727Z,7.77
2023-01-02T09:26:25.303Z,7.82
2023-01-02T09:28:52.819Z,7.83
2023-01-02T09:31:20.867Z,7.85
2023-01-02T09:33:48.830Z,7.86
2023-01-02T09:36:19.337Z,7.83
2023-01-02T09:38:55.648Z,7.86
2023-01-02T09:41:58.996Z,7.88
2023-01-02T09:44:47.034Z,7.85
2023-01-02T09:47:24.033Z,7.86
2023-01-02T09:50:11.327Z,7.87
2023-01-02T09:52:48.963Z,7.87
2023-01-02T09:55:35.745Z,7.87
2023-01-02T09:58:28.576Z,7.91
2023-01-02T10:00:56.624Z,7.93
2023-01-02T10:04:33.217Z,8.00
2023-01-02T10:07:10.825Z,8.01
2023-01-02T10:09:56.694Z,8.01
2023-01-02T10:12:41.080Z,8.02
2023-01-02T10:15:27.610Z,8.00
2023-01-02T10:18:10.299Z,8.02
2023-01-02T10:20:43.282Z,8.01
2023-01-02T10:23:22.614Z,8.01
2023-01-02T10:26:01.581Z,8.10
2023-01-02T10:29:16.906Z,8.07
2023-01-02T10:32:02.705Z,8.09
2023-01-02T10:35:06.205Z,8.07
2023-01-02T10:37:35.611Z,8.11
2023-01-02T10:40:04.659Z,8.16
2023-01-02T10:42:33.932Z,8.10
2023-01-02T10:45:01.445Z,8.08
2023-01-02T10:47:40.945Z,8.06
2023-01-02T10:50:39.010Z,8.17
2023-01-02T10:53:31.044Z,8.24
2023-01-02T10:56:19.729Z,8.16
2023-01-02T10:58:50.589Z,8.19
2023-01-02T11:01:22.138Z,8.33
2023-01-02T11:04:12.896Z,8.23
2023-01-02T11:06:59.229Z,8.20
2023-01-02T11:09:36.427Z,8.27
2023-01-02T11:12:14.079Z,8.35
2023-01-02T11:14:41.427Z,8.38
2023-01-02T11:17:20.695Z,8.38
2023-01-02T11:19:56.833Z,8.43
2023-01-02T11:22:36.330Z,8.43
2023-01-02T11:25:20.794Z,8.37
2023-01-02T11:27:48.355Z,8.43
2023-01-02T11:30:47.185Z,8.46
2023-01-02T11:33:14.308Z,8.47
2023-01-02T11:36:12.719Z,8.46
2023-01-02T11:38:56.738Z,8.51
2023-01-02T11:42:13.444Z,8.54
2023-01-02T11:45:09.764Z,8.45
2023-01-02T11:47:44.412Z,8.47
2023-01-02T11:50:31.781Z,8.52
2023-01-02T11:53:11.802Z,8.52
2023-01-02T11:55:51.928Z,8.57
2023-01-02T11:58:33.611Z,8.62
2023-01-02T12:01:39.397Z,8.64
2023-01-02T12:04:06.920Z,8.62
2023-01-02T12:07:02.945Z,8.57
2023-01-02T12:10:16.835Z,8.52
2023-01-02T12:13:25.026Z,8.46
2023-01-02T12:16:34.337Z,8.42
2023-01-02T12:20:17.704Z,8.45
2023-01-02T12:22:59.130Z,8.47
2023-01-02T12:25:47.129Z,8.55
2023-01-02T12:29:45.967Z,8.61
2023-01-02T12:32:45.231Z,8.73
2023-01-02T12:35:41.230Z,8.57
2023-01-02T12:38:11.161Z,8.46
2023-01-02T12:41:28.914Z,8.54
2023-01-02T12:44:35.229Z,8.54
2023-01-02T12:47:31.906Z,8.69
2023-01-02T12:50:33.223Z,8.74
2023-01-02T12:53:25.686Z,8.73
2023-01-02T12:55:58.413Z,8.74
2023-01-02T12:59:04.136Z,8.76
2023-01-02T13:01:54.862Z,8.79
2023-01-02T13:04:43.550Z,8.80
2023-01-02T13:07:27.238Z,8.72
2023-01-02T13:09:57.796Z,8.66
2023-01-02T13:12:29.472Z,8.65
2023-01-02T13:15:03.899Z,8.60
2023-01-02T13:18:30.367Z,8.66
2023-01-02T13:21:39.789Z,8.75
2023-01-02T13:24:11.916Z,8.80
2023-01-02T13:26:39.885Z,8.84
2023-01-02T13:29:09.971Z,8.85
2023-01-02T13:31:49.177Z,8.88
2023-01-02T13:34:26.724Z,8.88
2023-01-02T13:37:05.545Z,8.91
2023-01-02T13:39:43.572Z,8.88
2023-01-02T13:42:51.381Z,8.89
2023-01-02T13:45:37.524Z,8.86
2023-01-02T13:48:38.486Z,8.81
2023-01-02T13:51:23.468Z,8.80
2023-01-02T13:53:53.227Z,8.78
2023-01-02T13:56:25.887Z,8.75
2023-01-02T13:59:41.902Z,8.70
2023-01-02T14:02:20.995Z,8.73
2023-01-02T14:04:48.462Z,8.72
2023-01-02T14:07:29.442Z,8.66
2023-01-02T14:10:19.697Z,8.60
2023-01-02T14:13:07.658Z,8.64
2023-01-02T14:16:12.576Z,8.64
2023-01-02T14:18:46.075Z,8.59
2023-01-02T14:21:17.921Z,8.63
2023-01-02T14:24:17.277Z,8.61
2023-01-02T14:26:39.923Z,8.61
2023-01-02T14:29:16.523Z,8.60
2023-01-02T14:31:44.140Z,8.62
2023-01-02T14:34:22.652Z,8.58
2023-01-02T14:36:51.502Z,8.56
2023-01-02T14:39:33.560Z,8.47
2023-01-02T14:42:41.283Z,8.47
2023-01-02T14:45:18.017Z,8.46
2023-01-02T14:48:00.491Z,8.43
2023-01-02T14:50:33.615Z,8.41
2023-01-02T14:53:37.315Z,8.43
2023-01-02T14:56:18.994Z,8.45
2023-01-02T14:58:49.211Z,8.43
2023-01-02T15:01:43.096Z,8.41
2023-01-02T15:04:38.806Z,8.39
2023-01-02T15:07:33.560Z,8.38
2023-01-02T15:10:26.899Z,8.42
2023-01-02T15:13:04.184Z,8.42
2023-01-02T15:15:49.917Z,8.45
2023-01-02T15:18:32.748Z,8.45
2023-01-02T15:21:26.265Z,8.47
2023-01-02T15:23:54.632Z,8.47
2023-01-02T15:26:34.791Z,8.45
2023-01-02T15:29:21.188Z,8.44
2023-01-02T15:32:00.440Z,8.41
2023-01-02T15:34:32.903Z,8.47
2023-01-02T15:37:07.500Z,8.42
2023-01-02T15:39:40.333Z,8.41
2023-01-02T15:42:49.763Z,8.42
2023-01-02T15:45:17.806Z,8.41
2023-01-02T15:47:50.239Z,8.40
2023-01-02T15:50:28.269Z,8.40
2023-01-02T15:53:02.909Z,8.40
2023-01-02T15:55:41.493Z,8.43
2023-01-02T15:58:17.598Z,8.40
2023-01-02T16:00:46.377Z,8.37
2023-01-02T16:04:02.152Z,8.35
2023-01-02T16:06:42.631Z,8.33
2023-01-02T16:09:28.258Z,8.31
2023-01-02T16:12:03.205Z,8.29
2023-01-02T16:14:39.653Z,8.28
2023-01-02T16:17:28.867Z,8.28
2023-01-02T16:20:07.723Z,8.27
2023-01-02T16:23:07.775Z,8.28
2023-01-02T16:25:43.951Z,8.28
2023-01-02T16:28:34.782Z,8.31
2023-01-02T16:31:18.235Z,8.29
2023-01-02T16:33:46.553Z,8.28
2023-01-02T16:36:28.896Z,8.28
2023-01-02T16:39:02.471Z,8.29
2023-01-02T16:41:38.132Z,8.30
2023-01-02T16:44:20.676Z,8.30
2023-01-02T16:46:50.351Z,8.29
2023-01-02T16:49:22.370Z,8.33
2023-01-02T16:51:53.537Z,8.32
2023-01-02T16:54:20.980Z,8.29
2023-01-02T16:56:49.991Z,8.27
2023-01-02T16:59:17.260Z,8.25
2023-01-02T17:01:44.683Z,8.24
2023-01-02T17:04:13.995Z,8.26
2023-01-02T17:06:41.257Z,8.27
2023-01-02T17:09:08.390Z,8.29
2023-01-02T17:11:37.318Z,8.30
2023-01-02T17:14:08.007Z,8.30
2023-01-02T17:16:37.609Z,8.30
2023-01-02T17:19:04.967Z,8.28
2023-01-02T17:21:33.071Z,8.28
2023-01-02T17:24:26.389Z,8.29
2023-01-02T17:26:53.915Z,8.28
2023-01-02T17:29:23.029Z,8.30
2023-01-02T17:31:52.883Z,8.29
2023-01-02T17:34:28.664Z,8.26
2023-01-02T17:36:57.068Z,8.24
2023-01-02T17:39:25.634Z,8.24
2023-01-02T17:41:52.890Z,8.26
2023-01-02T17:44:20.417Z,8.26
2023-01-02T17:47:38.863Z,8.25
2023-01-02T17:49:41.316Z,8.27
2023-01-02T17:52:09.948Z,8.28
2023-01-02T17:54:37.209Z,8.28
2023-01-02T17:57:04.804Z,8.28
2023-01-02T17:59:34.120Z,8.26
2023-01-02T18:02:02.009Z,8.24
2023-01-02T18:04:29.848Z,8.23
2023-01-02T18:06:57.133Z,8.28
2023-01-02T18:09:32.729Z,8.27
2023-01-02T18:12:00.155Z,8.27
2023-01-02T18:14:28.334Z,8.31
2023-01-02T18:16:59.765Z,8.30
2023-01-02T18:19:36.604Z,8.31
2023-01-02T18:22:15.686Z,8.31
2023-01-02T18:24:49.888Z,8.29
2023-01-02T18:27:34.989Z,8.29
2023-01-02T18:30:18.540Z,8.28
2023-01-02T18:33:13.709Z,8.29
2023-01-02T18:35:58.536Z,8.29
2023-01-02T18:38:39.545Z,8.27
2023-01-02T18:41:24.641Z,8.29
2023-01-02T18:44:37.497Z,8.25
2023-01-02T18:47:32.418Z,8.24
2023-01-02T18:53:27.362Z,8.24
2023-01-02T18:56:02.423Z,8.22
2023-01-02T18:58:43.917Z,8.23
2023-01-02T19:01:30.495Z,8.20
2023-01-02T19:04:16.585Z,8.21
2023-01-02T19:06:54.608Z,8.20
2023-01-02T19:09:35.280Z,8.21
2023-01-02T19:13:07.329Z,8.22
2023-01-02T19:15:56.550Z,8.22
2023-01-02T19:18:49.439Z,8.22
2023-01-02T19:21:31.678Z,8.23
2023-01-02T19:24:04.950Z,8.22
2023-01-02T19:26:44.934Z,8.22
2023-01-02T19:29:23.900Z,8.21
2023-01-02T19:32:29.183Z,8.20
2023-01-02T19:35:09.002Z,8.20
2023-01-02T19:37:40.784Z,8.21
2023-01-02T19:40:23.013Z,8.22
2023-01-02T19:42:53.171Z,8.23
2023-01-02T19:45:28.057Z,8.21
2023-01-02T19:47:55.389Z,8.21
2023-01-02T19:50:26.907Z,8.23
2023-01-02T19:52:54.425Z,8.21
2023-01-02T19:55:21.794Z,8.20
2023-01-02T19:57:49.050Z,8.20
2023-01-02T20:00:19.437Z,8.20
2023-01-02T20:02:49.709Z,8.21
2023-01-02T20:05:21.771Z,8.22
2023-01-02T20:07:52.661Z,8.22
2023-01-02T20:10:21.583Z,8.24
2023-01-02T20:12:48.975Z,8.23
2023-01-02T20:15:21.039Z,8.23
2023-01-02T20:17:48.377Z,8.22
2023-01-02T20:20:20.328Z,8.20
2023-01-02T20:22:51.149Z,8.20
2023-01-02T20:25:23.751Z,8.18
2023-01-02T20:27:55.869Z,8.16
2023-01-02T20:30:25.434Z,8.16
2023-01-02T20:32:55.902Z,8.14
2023-01-02T20:35:23.657Z,8.14
2023-01-02T20:37:51.025Z,8.14
2023-01-02T20:40:18.328Z,8.15
2023-01-02T20:42:45.547Z,8.16
2023-01-02T20:45:13.139Z,8.15
2023-01-02T20:47:40.488Z,8.14
2023-01-02T20:50:08.609Z,8.15
2023-01-02T20:52:35.896Z,8.16
2023-01-02T20:55:03.357Z,8.16
2023-01-02T20:57:30.749Z,8.17
2023-01-02T20:59:57.975Z,8.15
2023-01-02T21:02:26.361Z,8.16
2023-01-02T21:04:53.850Z,8.18
2023-01-02T21:07:21.709Z,8.17
2023-01-02T21:09:48.902Z,8.18
2023-01-02T21:12:51.354Z,8.19
2023-01-02T21:15:37.202Z,8.19
2023-01-02T21:18:04.699Z,8.21
2023-01-02T21:20:31.870Z,8.21
2023-01-02T21:22:59.525Z,8.18
2023-01-02T21:25:30.468Z,8.19
2023-01-02T21:28:06.723Z,8.20
2023-01-02T21:30:34.813Z,8.20
2023-01-02T21:33:02.101Z,8.19
2023-01-02T21:35:29.803Z,8.20
2023-01-02T21:37:57.103Z,8.18
2023-01-02T21:40:24.977Z,8.20
2023-01-02T21:42:52.217Z,8.19
2023-01-02T21:45:20.796Z,8.20
2023-01-02T21:47:49.053Z,8.16
2023-01-02T21:50:16.497Z,8.14
2023-01-02T21:52:43.962Z,8.15
2023-01-02T21:55:17.783Z,8.14
2023-01-02T21:58:13.017Z,8.14
2023-01-02T22:00:45.978Z,8.16
2023-01-02T22:03:13.647Z,8.14
2023-01-02T22:05:41.576Z,8.14
2023-01-02T22:08:09.045Z,8.11
2023-01-02T22:10:37.388Z,8.12
2023-01-02T22:13:04.812Z,8.14
2023-01-02T22:15:32.219Z,8.09
2023-01-02T22:18:00.105Z,8.05
2023-01-02T22:20:27.585Z,8.00
2023-01-02T22:23:03.609Z,8.01
2023-01-02T22:25:31.928Z,8.02
2023-01-02T22:28:00.207Z,8.03
2023-01-02T22:30:35.173Z,8.03
2023-01-02T22:33:03.437Z,8.04
2023-01-02T22:35:32.749Z,8.05
2023-01-02T22:38:01.615Z,8.08
2023-01-02T22:40:33.132Z,8.12
2023-01-02T22:43:05.224Z,8.12
2023-01-02T22:45:53.634Z,8.12
2023-01-02T22:48:49.842Z,8.11
2023-01-02T22:51:22.851Z,8.12
2023-01-02T22:53:58.828Z,8.12
2023-01-02T22:56:35.351Z,8.12
2023-01-02T22:59:05.412Z,8.11
2023-01-02T23:01:38.902Z,8.12
2023-01-02T23:04:28.196Z,8.11
2023-01-02T23:07:23.321Z,8.08
2023-01-02T23:09:49.323Z,8.06
2023-01-02T23:12:17.044Z,8.08
2023-01-02T23:14:45.346Z,8.06
2023-01-02T23:17:38.111Z,8.04
2023-01-02T23:20:06.453Z,8.07
2023-01-02T23:22:37.318Z,8.08
2023-01-02T23:25:07.418Z,8.10
2023-01-02T23:27:34.939Z,8.11
2023-01-02T23:30:02.873Z,8.11
2023-01-02T23:32:30.518Z,8.13
2023-01-02T23:35:00.428Z,8.12
2023-01-02T23:37:33.145Z,8.12
2023-01-02T23:40:06.083Z,8.12
2023-01-02T23:42:45.638Z,8.12
2023-01-02T23:45:12.970Z,8.14
2023-01-02T23:47:44.124Z,8.17
2023-01-02T23:50:11.745Z,8.15
2023-01-02T23:52:39.071Z,8.11
2023-01-02T23:55:11.151Z,8.10
2023-01-02T23:57:38.558Z,8.09
